createdAt,value
2022-09-05T00:01:30.128Z,102967.47
2022-09-05T00:04:25.107Z,102963.03
2022-09-05T00:07:01.896Z,102966.72
2022-09-05T00:09:52.733Z,102965.94
2022-09-05T00:12:21.029Z,102967.94
2022-09-05T00:15:17.834Z,102963.63
2022-09-05T00:19:28.444Z,102962.84
2022-09-05T00:24:20.904Z,102947.28
2022-09-05T00:24:36.508Z,102964.09
2022-09-05T00:26:54.169Z,102964.91
2022-09-05T00:30:52.320Z,102974.78
2022-09-05T00:32:36.340Z,102968.59
2022-09-05T00:35:25.920Z,102971.28
2022-09-05T00:37:56.096Z,102971.34
2022-09-05T00:40:31.233Z,102964.09
2022-09-05T00:43:03.257Z,102971.28
2022-09-05T00:45:38.737Z,102969.47
2022-09-05T00:48:19.587Z,102974.84
2022-09-05T00:51:10.212Z,102971.34
2022-09-05T00:53:45.661Z,102967.78
2022-09-05T00:56:31.735Z,102970.44
2022-09-05T00:59:27.956Z,102972.16
2022-09-05T01:02:05.223Z,102972.94
2022-09-05T01:04:43.958Z,102970.13
2022-09-05T01:07:25.718Z,102974.56
2022-09-05T01:10:05.321Z,102970.09
2022-09-05T01:12:52.670Z,102969.22
2022-09-05T01:15:32.775Z,102971.97
2022-09-05T01:18:28.697Z,102974.66
2022-09-05T01:21:22.866Z,102964.06
2022-09-05T01:24:27.804Z,102957.00
2022-09-05T01:29:13.189Z,102970.34
2022-09-05T01:30:37.068Z,102975.78
2022-09-05T01:33:17.962Z,102957.25
2022-09-05T01:36:07.747Z,102974.91
2022-09-05T01:39:09.656Z,102982.97
2022-09-05T01:41:39.395Z,102982.09
2022-09-05T01:44:37.857Z,102982.09
2022-09-05T01:47:29.298Z,102954.28
2022-09-05T01:50:08.192Z,102984.88
2022-09-05T01:53:04.866Z,102985.78
2022-09-05T01:56:05.196Z,102976.97
2022-09-05T01:58:57.526Z,102976.94
2022-09-05T02:01:34.824Z,102984.09
2022-09-05T02:04:31.125Z,102977.81
2022-09-05T02:07:15.277Z,102974.28
2022-09-05T02:10:37.717Z,102963.56
2022-09-05T02:13:20.732Z,102964.50
2022-09-05T02:15:59.692Z,102967.19
2022-09-05T02:18:44.483Z,102964.44
2022-09-05T02:21:25.508Z,102968.78
2022-09-05T02:24:04.189Z,102952.03
2022-09-05T02:26:37.461Z,102970.47
2022-09-05T02:29:28.976Z,102966.88
2022-09-05T02:32:02.184Z,102969.59
2022-09-05T02:34:40.550Z,102965.06
2022-09-05T02:37:22.818Z,102972.28
2022-09-05T02:45:02.723Z,102968.75
2022-09-05T02:45:11.155Z,102968.78
2022-09-05T02:46:05.073Z,102973.38
2022-09-05T02:48:47.269Z,102968.94
2022-09-05T02:57:28.482Z,102972.56
2022-09-05T02:57:40.616Z,102966.38
2022-09-05T02:57:42.127Z,102967.19
2022-09-05T03:00:13.265Z,102970.94
2022-09-05T03:03:06.055Z,102977.19
2022-09-05T03:05:39.180Z,102963.88
2022-09-05T03:08:20.135Z,102971.06
2022-09-05T03:11:05.144Z,102962.16
2022-09-05T03:14:01.722Z,102968.47
2022-09-05T03:17:01.251Z,102959.59
2022-09-05T03:20:04.299Z,102964.09
2022-09-05T03:23:05.721Z,102969.53
2022-09-05T03:26:24.442Z,102972.25
2022-09-05T03:29:16.680Z,102973.16
2022-09-05T03:32:10.563Z,102982.06
2022-09-05T03:35:08.741Z,102986.47
2022-09-05T03:38:18.126Z,102984.63
2022-09-05T03:41:00.173Z,102974.69
2022-09-05T03:43:57.950Z,102979.09
2022-09-05T03:46:38.699Z,102977.38
2022-09-05T03:53:17.995Z,102983.63
2022-09-05T03:57:06.640Z,102988.13
2022-09-05T03:57:23.882Z,102983.63
2022-09-05T03:58:57.142Z,102982.78
2022-09-05T04:03:17.906Z,102990.00
2022-09-05T04:08:13.584Z,102997.16
2022-09-05T04:08:18.262Z,102992.81
2022-09-05T04:10:27.338Z,102993.72
2022-09-05T04:13:02.693Z,102997.28
2022-09-05T04:15:39.706Z,102999.09
2022-09-05T04:18:32.737Z,102995.53
2022-09-05T04:21:07.750Z,103001.88
2022-09-05T04:23:47.587Z,102970.44
2022-09-05T04:26:30.220Z,103005.47
2022-09-05T04:29:15.120Z,102997.41
2022-09-05T04:32:18.204Z,103002.91
2022-09-05T04:34:57.212Z,103005.56
2022-09-05T04:37:48.475Z,103001.09
2022-09-05T04:40:40.760Z,103002.97
2022-09-05T04:43:14.316Z,102996.72
2022-09-05T04:45:47.171Z,102994.03
2022-09-05T04:48:22.314Z,102999.34
2022-09-05T04:51:05.125Z,102997.53
2022-09-05T04:54:20.143Z,102993.97
2022-09-05T04:56:56.358Z,103000.16
2022-09-05T05:03:56.517Z,102996.41
2022-09-05T05:05:59.627Z,102999.97
2022-09-05T05:06:14.277Z,102970.22
2022-09-05T05:08:29.123Z,103005.22
2022-09-05T05:17:54.206Z,103001.66
2022-09-05T05:17:57.091Z,102999.16
2022-09-05T05:18:12.507Z,103013.19
2022-09-05T05:20:40.445Z,103002.44
2022-09-05T05:22:55.972Z,103006.00
2022-09-05T05:25:24.191Z,103011.44
2022-09-05T05:28:10.265Z,103013.06
2022-09-05T05:30:51.057Z,103014.94
2022-09-05T05:33:29.508Z,103012.97
2022-09-05T05:36:01.485Z,103012.06
2022-09-05T05:38:39.757Z,103017.41
2022-09-05T05:41:18.560Z,103016.50
2022-09-05T05:43:48.431Z,103012.94
2022-09-05T05:46:28.870Z,103006.00
2022-09-05T05:49:09.585Z,103019.06
2022-09-05T05:52:02.116Z,103021.72
2022-09-05T05:54:40.664Z,103026.09
2022-09-05T05:57:55.070Z,103019.78
2022-09-05T06:00:32.565Z,103023.47
2022-09-05T06:03:46.340Z,103021.44
2022-09-05T06:06:42.888Z,103027.69
2022-09-05T06:14:52.371Z,103022.25
2022-09-05T06:14:55.256Z,103031.00
2022-09-05T06:17:01.933Z,103027.25
2022-09-05T06:22:07.380Z,103025.22
2022-09-05T06:23:48.055Z,103029.59
2022-09-05T06:26:49.375Z,103022.28
2022-09-05T06:29:37.967Z,103023.88
2022-09-05T06:32:27.637Z,103020.19
2022-09-05T06:35:24.029Z,103028.13
2022-09-05T06:38:07.788Z,103025.34
2022-09-05T06:40:42.436Z,103028.91
2022-09-05T06:43:28.333Z,103020.72
2022-09-05T06:46:32.222Z,103026.00
2022-09-05T06:49:32.366Z,103024.22
2022-09-05T06:52:36.342Z,103027.69
2022-09-05T06:55:28.493Z,103034.84
2022-09-05T06:58:42.508Z,103028.47
2022-09-05T07:01:12.242Z,103031.16
2022-09-05T07:03:59.716Z,103037.22
2022-09-05T07:07:06.438Z,103032.63
2022-09-05T07:09:52.060Z,103037.81
2022-09-05T07:12:27.843Z,103040.38
2022-09-05T07:15:10.625Z,103033.91
2022-09-05T07:18:09.653Z,103038.19
2022-09-05T07:21:16.016Z,103028.41
2022-09-05T07:24:06.278Z,103040.69
2022-09-05T07:26:54.184Z,103042.38
2022-09-05T07:29:32.223Z,103043.03
2022-09-05T07:32:05.744Z,103043.75
2022-09-05T07:34:35.547Z,103040.06
2022-09-05T07:37:14.999Z,103045.13
2022-09-05T07:39:50.894Z,103044.13
2022-09-05T07:42:24.286Z,103046.69
2022-09-05T07:44:56.698Z,103042.09
2022-09-05T07:47:30.308Z,103046.44
2022-09-05T07:52:39.380Z,103048.13
2022-09-05T07:56:51.385Z,103047.28
2022-09-05T07:56:51.933Z,103040.00
2022-09-05T07:58:41.813Z,103046.97
2022-09-05T08:01:12.666Z,103024.16
2022-09-05T08:03:43.991Z,103046.81
2022-09-05T08:06:50.754Z,103044.03
2022-09-05T08:10:05.390Z,103032.66
2022-09-05T08:12:09.898Z,103052.84
2022-09-05T08:14:46.124Z,103048.31
2022-09-05T08:17:18.868Z,103041.91
2022-09-05T08:20:10.552Z,103040.91
2022-09-05T08:22:52.336Z,103040.75
2022-09-05T08:25:27.568Z,103038.03
2022-09-05T08:28:20.810Z,103037.00
2022-09-05T08:30:58.129Z,103043.16
2022-09-05T08:33:33.166Z,103018.31
2022-09-05T08:36:09.189Z,103040.34
2022-09-05T08:38:41.225Z,103040.25
2022-09-05T08:41:18.365Z,103026.81
2022-09-05T08:46:43.401Z,103036.41
2022-09-05T08:46:54.458Z,103032.84
2022-09-05T08:49:54.339Z,103035.31
2022-09-05T08:52:34.270Z,103035.31
2022-09-05T08:55:14.750Z,103029.75
2022-09-05T08:58:02.552Z,103024.47
2022-09-05T09:00:36.159Z,103022.66
2022-09-05T09:03:15.366Z,103027.91
2022-09-05T09:06:15.999Z,103017.94
2022-09-05T09:09:10.357Z,103020.53
2022-09-05T09:11:44.120Z,103017.97
2022-09-05T09:14:38.260Z,103015.00
2022-09-05T09:17:24.420Z,103016.81
2022-09-05T09:20:09.907Z,103008.69
2022-09-05T09:22:43.036Z,103015.78
2022-09-05T09:25:16.776Z,103015.72
2022-09-05T09:28:47.351Z,103005.75
2022-09-05T09:31:00.490Z,102988.06
2022-09-05T09:33:39.566Z,102992.03
2022-09-05T09:36:23.104Z,102994.56
2022-09-05T09:39:14.451Z,102997.06
2022-09-05T09:42:32.557Z,102982.69
2022-09-05T09:45:33.336Z,102977.28
2022-09-05T09:48:27.377Z,102980.78
2022-09-05T09:51:12.281Z,102987.91
2022-09-05T09:54:01.112Z,102983.31
2022-09-05T09:57:02.554Z,102979.59
2022-09-05T09:59:54.403Z,102983.97
2022-09-05T10:06:57.732Z,102979.47
2022-09-05T10:10:37.915Z,102973.16
2022-09-05T10:10:50.600Z,102972.19
2022-09-05T10:11:54.150Z,102973.06
2022-09-05T10:15:01.921Z,102977.50
2022-09-05T10:18:15.211Z,102965.88
2022-09-05T10:21:16.225Z,102962.31
2022-09-05T10:24:26.828Z,102951.53
2022-09-05T10:27:20.810Z,102954.22
2022-09-05T10:30:06.588Z,102955.97
2022-09-05T10:35:17.609Z,102954.06
2022-09-05T10:35:37.255Z,102939.22
2022-09-05T10:38:12.736Z,102945.91
2022-09-05T10:41:20.127Z,102945.03
2022-09-05T10:43:36.252Z,102952.25
2022-09-05T10:46:46.627Z,102943.16
2022-09-05T10:49:11.925Z,102943.16
2022-09-05T10:51:52.042Z,102945.66
2022-09-05T10:54:32.290Z,102928.56
2022-09-05T10:57:13.375Z,102941.00
2022-09-05T11:02:24.156Z,102943.63
2022-09-05T11:02:53.953Z,102937.28
2022-09-05T11:05:28.895Z,102941.63
2022-09-05T11:08:06.860Z,102940.59
2022-09-05T11:10:38.822Z,102935.22
2022-09-05T11:13:20.034Z,102934.25
2022-09-05T11:16:04.012Z,102935.16
2022-09-05T11:18:56.191Z,102926.09
2022-09-05T11:21:30.597Z,102939.50
2022-09-05T11:24:08.516Z,102932.25
2022-09-05T11:26:43.240Z,102925.06
2022-09-05T11:29:18.254Z,102929.50
2022-09-05T11:32:42.109Z,102924.13
2022-09-05T11:39:50.314Z,102913.50
2022-09-05T11:40:09.704Z,102912.56
2022-09-05T11:41:57.375Z,102916.03
2022-09-05T11:44:35.858Z,102908.03
2022-09-05T11:47:44.591Z,102913.41
2022-09-05T11:50:44.720Z,102915.44
2022-09-05T11:53:57.406Z,102911.94
2022-09-05T11:57:11.426Z,102918.28
2022-09-05T12:00:33.143Z,102900.38
2022-09-05T12:04:09.948Z,102896.44
2022-09-05T12:07:16.020Z,102904.19
2022-09-05T12:10:03.361Z,102901.56
2022-09-05T12:12:41.072Z,102897.94
2022-09-05T12:15:27.098Z,102906.78
2022-09-05T12:18:19.598Z,102897.78
2022-09-05T12:21:04.599Z,102894.97
2022-09-05T12:24:36.806Z,102895.69
2022-09-05T12:27:39.154Z,102892.91
2022-09-05T12:29:45.543Z,102881.09
2022-09-05T12:33:32.676Z,102857.81
2022-09-05T12:36:06.600Z,102884.63
2022-09-05T12:40:56.524Z,102880.00
2022-09-05T12:41:44.673Z,102874.53
2022-09-05T12:44:41.824Z,102871.78
2022-09-05T12:47:18.536Z,102874.38
2022-09-05T12:50:03.412Z,102874.31
2022-09-05T12:52:46.589Z,102880.63
2022-09-05T12:55:26.158Z,102875.16
2022-09-05T13:02:55.479Z,102870.75
2022-09-05T13:03:02.513Z,102877.22
2022-09-05T13:04:15.934Z,102869.25
2022-09-05T13:06:40.938Z,102872.19
2022-09-05T13:09:16.877Z,102869.56
2022-09-05T13:14:47.371Z,102864.28
2022-09-05T13:15:11.523Z,102864.44
2022-09-05T13:17:51.402Z,102862.00
2022-09-05T13:20:34.250Z,102870.06
2022-09-05T13:23:11.393Z,102863.03
2022-09-05T13:25:43.382Z,102866.56
2022-09-05T13:28:15.653Z,102859.38
2022-09-05T13:34:04.478Z,102856.63
2022-09-05T13:38:03.244Z,102859.22
2022-09-05T13:38:15.037Z,102852.88
2022-09-05T13:39:29.272Z,102847.50
2022-09-05T13:42:03.433Z,102828.97
2022-09-05T13:44:38.160Z,102849.84
2022-09-05T13:47:16.379Z,102858.63
2022-09-05T13:50:17.403Z,102852.31
2022-09-05T13:52:49.824Z,102853.16
2022-09-05T13:55:23.864Z,102849.47
2022-09-05T13:57:57.514Z,102850.28
2022-09-05T14:01:14.235Z,102848.66
2022-09-05T14:05:05.168Z,102848.81
2022-09-05T14:07:50.300Z,102841.75
2022-09-05T14:10:45.848Z,102842.81
2022-09-05T14:13:19.302Z,102842.81
2022-09-05T14:15:53.858Z,102835.69
2022-09-05T14:18:24.798Z,102826.03
2022-09-05T14:21:15.238Z,102825.88
2022-09-05T14:23:53.642Z,102798.91
2022-09-05T14:26:29.598Z,102823.13
2022-09-05T14:29:15.105Z,102819.44
2022-09-05T14:37:37.523Z,102818.56
2022-09-05T14:37:48.384Z,102818.56
2022-09-05T14:38:09.434Z,102816.84
2022-09-05T14:41:26.724Z,102820.44
2022-09-05T14:44:19.824Z,102820.31
2022-09-05T14:47:08.401Z,102814.94
2022-09-05T14:50:07.245Z,102822.06
2022-09-05T14:52:43.782Z,102817.53
2022-09-05T15:02:42.473Z,102810.19
2022-09-05T15:02:45.188Z,102814.84
2022-09-05T15:06:37.945Z,102804.78
2022-09-05T15:12:16.708Z,102800.34
2022-09-05T15:12:23.889Z,102794.13
2022-09-05T15:15:01.449Z,102804.78
2022-09-05T15:17:30.625Z,102788.75
2022-09-05T15:20:06.187Z,102793.91
2022-09-05T15:22:37.322Z,102791.22
2022-09-05T15:25:17.190Z,102789.56
2022-09-05T15:27:49.504Z,102785.78
2022-09-05T15:30:20.510Z,102780.41
2022-09-05T15:32:50.835Z,102783.09
2022-09-05T15:35:35.202Z,102777.72
2022-09-05T15:38:21.769Z,102775.88
2022-09-05T15:41:07.672Z,102775.06
2022-09-05T15:43:40.151Z,102781.28
2022-09-05T15:46:08.682Z,102776.94
2022-09-05T15:48:40.900Z,102779.53
2022-09-05T15:51:30.984Z,102774.13
2022-09-05T15:54:02.309Z,102777.00
2022-09-05T15:56:30.375Z,102771.53
2022-09-05T15:59:03.018Z,102769.53
2022-09-05T16:01:58.153Z,102770.41
2022-09-05T16:10:30.877Z,102772.31
2022-09-05T16:10:33.562Z,102764.31
2022-09-05T16:10:39.106Z,102758.31
2022-09-05T16:12:59.749Z,102762.59
2022-09-05T16:19:36.253Z,102757.22
2022-09-05T16:23:17.780Z,102762.59
2022-09-05T16:23:32.023Z,102764.50
2022-09-05T16:24:14.425Z,102751.22
2022-09-05T16:26:47.966Z,102751.22
2022-09-05T16:29:26.056Z,102755.63
2022-09-05T16:32:11.805Z,102745.81
2022-09-05T16:34:47.704Z,102690.44
2022-09-05T16:37:19.982Z,102750.50
2022-09-05T16:39:52.037Z,102746.16
2022-09-05T16:42:45.715Z,102745.28
2022-09-05T16:45:26.147Z,102750.84
2022-09-05T16:48:09.125Z,102748.34
2022-09-05T16:50:48.170Z,102742.09
2022-09-05T16:53:31.021Z,102738.50
2022-09-05T16:56:05.238Z,102735.03
2022-09-05T16:58:38.756Z,102736.88
2022-09-05T17:01:20.186Z,102734.16
2022-09-05T17:03:55.734Z,102727.84
2022-09-05T17:06:28.037Z,102731.38
2022-09-05T17:09:12.870Z,102731.31
2022-09-05T17:11:51.047Z,102729.56
2022-09-05T17:14:34.929Z,102729.50
2022-09-05T17:18:06.000Z,102729.50
2022-09-05T17:20:07.142Z,102725.16
2022-09-05T17:27:57.019Z,102727.75
2022-09-05T17:29:24.033Z,102728.78
2022-09-05T17:29:28.326Z,102728.78
2022-09-05T17:31:53.454Z,102726.19
2022-09-05T17:34:54.417Z,102736.16
2022-09-05T17:37:46.476Z,102727.31
2022-09-05T17:40:57.277Z,102722.16
2022-09-05T17:43:29.164Z,102732.28
2022-09-05T17:46:13.699Z,102728.81
2022-09-05T17:49:18.469Z,102736.19
2022-09-05T17:52:28.298Z,102731.91
2022-09-05T17:54:57.983Z,102729.47
2022-09-05T17:57:40.167Z,102721.56
2022-09-05T18:00:48.656Z,102735.88
2022-09-05T18:04:16.880Z,102731.72
2022-09-05T18:06:59.072Z,102730.06
2022-09-05T18:09:59.021Z,102739.63
2022-09-05T18:16:13.135Z,102739.56
2022-09-05T18:19:29.054Z,102739.56
2022-09-05T18:21:54.274Z,102737.63
2022-09-05T18:27:39.376Z,102739.34
2022-09-05T18:30:30.085Z,102743.91
2022-09-05T18:33:55.029Z,102750.13
2022-09-05T18:36:40.753Z,102746.59
2022-09-05T18:39:50.209Z,102754.72
2022-09-05T18:42:33.583Z,102744.13
2022-09-05T18:45:14.668Z,102741.44
2022-09-05T18:47:53.038Z,102746.81
2022-09-05T18:50:32.542Z,102738.06
2022-09-05T18:53:09.518Z,102747.06
2022-09-05T18:56:13.087Z,102742.81
2022-09-05T18:58:35.245Z,102745.66
2022-09-05T19:01:27.653Z,102742.09
2022-09-05T19:04:03.957Z,102734.19
2022-09-05T19:06:37.934Z,102740.59
2022-09-05T19:09:09.937Z,102741.53
2022-09-05T19:11:53.150Z,102740.69
2022-09-05T19:14:34.926Z,102732.78
2022-09-05T19:17:08.819Z,102731.03
2022-09-05T19:20:32.486Z,102736.50
2022-09-05T19:23:10.471Z,102733.03
2022-09-05T19:25:46.385Z,102729.31
2022-09-05T19:33:50.494Z,102734.59
2022-09-05T19:37:08.702Z,102729.31
2022-09-05T19:37:10.874Z,102727.47
2022-09-05T19:37:29.223Z,102726.78
2022-09-05T19:42:49.515Z,102731.19
2022-09-05T19:47:29.128Z,102731.28
2022-09-05T19:47:36.823Z,102722.34
2022-09-05T19:48:26.981Z,102720.63
2022-09-05T19:50:56.619Z,102716.34
2022-09-05T19:53:28.106Z,102721.47
2022-09-05T19:55:57.033Z,102713.50
2022-09-05T19:58:27.796Z,102720.69
2022-09-05T20:01:05.810Z,102715.41
2022-09-05T20:03:39.270Z,102711.91
2022-09-05T20:06:26.793Z,102696.38
2022-09-05T20:09:10.978Z,102710.25
2022-09-05T20:11:45.556Z,102709.56
2022-09-05T20:14:22.214Z,102713.13
2022-09-05T20:16:51.509Z,102705.22
2022-09-05T20:19:29.547Z,102707.91
2022-09-05T20:22:12.745Z,102698.19
2022-09-05T20:24:51.251Z,102700.09
2022-09-05T20:27:27.153Z,102706.44
2022-09-05T20:29:58.212Z,102699.25
2022-09-05T20:32:39.866Z,102709.97
2022-09-05T20:37:51.685Z,102698.31
2022-09-05T20:43:10.163Z,102696.53
2022-09-05T20:43:24.000Z,102691.16
2022-09-05T20:43:58.147Z,102692.94
2022-09-05T20:50:45.636Z,102682.25
2022-09-05T20:54:14.020Z,102689.34
2022-09-05T20:54:23.202Z,102684.00
2022-09-05T20:55:37.990Z,102692.06
2022-09-05T20:57:51.072Z,102689.38
2022-09-05T21:00:23.012Z,102686.69
2022-09-05T21:02:54.671Z,102688.47
2022-09-05T21:05:30.190Z,102683.09
2022-09-05T21:08:25.986Z,102688.47
2022-09-05T21:10:56.545Z,102656.41
2022-09-05T21:13:28.214Z,102689.34
2022-09-05T21:15:57.199Z,102684.09
2022-09-05T21:18:33.232Z,102658.84
2022-09-05T21:21:14.587Z,102686.06
2022-09-05T21:24:16.291Z,102679.03
2022-09-05T21:26:50.523Z,102681.84
2022-09-05T21:29:27.552Z,102681.84
2022-09-05T21:32:02.380Z,102678.47
2022-09-05T21:34:38.419Z,102676.72
2022-09-05T21:37:15.288Z,102668.81
2022-09-05T21:39:59.244Z,102671.59
2022-09-05T21:45:18.106Z,102643.94
2022-09-05T21:47:49.220Z,102665.50
2022-09-05T21:48:15.260Z,102667.41
2022-09-05T21:50:46.861Z,102665.50
2022-09-05T21:56:46.662Z,102664.56
2022-09-05T21:59:18.250Z,102675.47
2022-09-05T21:59:28.694Z,102656.19
2022-09-05T22:01:58.826Z,102665.75
2022-09-05T22:04:27.050Z,102662.19
2022-09-05T22:06:57.628Z,102661.41
2022-09-05T22:09:25.670Z,102666.78
2022-09-05T22:11:53.817Z,102667.63
2022-09-05T22:14:24.364Z,102663.28
2022-09-05T22:16:56.278Z,102661.41
2022-09-05T22:19:37.347Z,102654.28
2022-09-05T22:22:17.643Z,102654.28
2022-09-05T22:24:53.309Z,102649.78
2022-09-05T22:27:23.875Z,102648.13
2022-09-05T22:29:52.426Z,102651.75
2022-09-05T22:32:30.957Z,102645.50
2022-09-05T22:35:26.931Z,102614.16
2022-09-05T22:38:07.050Z,102654.69
2022-09-05T22:40:37.968Z,102648.59
2022-09-05T22:43:07.591Z,102645.06
2022-09-05T22:45:38.247Z,102638.81
2022-09-05T22:48:11.719Z,102637.94
2022-09-05T22:50:42.289Z,102631.84
2022-09-05T22:53:11.042Z,102619.13
2022-09-05T22:55:41.388Z,102642.69
2022-09-05T22:58:11.760Z,102639.22
2022-09-05T23:00:41.339Z,102626.81
2022-09-05T23:03:09.387Z,102630.44
2022-09-05T23:05:37.400Z,102625.06
2022-09-05T23:08:07.420Z,102623.16
2022-09-05T23:10:36.520Z,102622.28
2022-09-05T23:13:05.850Z,102615.19
2022-09-05T23:15:34.030Z,102625.06
2022-09-05T23:18:02.877Z,102612.56
2022-09-05T23:20:33.109Z,102584.06
2022-09-05T23:23:04.600Z,102602.22
2022-09-05T23:25:34.401Z,102608.22
2022-09-05T23:28:06.278Z,102609.97
2022-09-05T23:30:34.312Z,102613.59
2022-09-05T23:33:02.285Z,102612.75
2022-09-05T23:35:30.299Z,102609.19
2022-09-05T23:37:58.276Z,102614.47
2022-09-05T23:40:26.954Z,102610.06
2022-09-05T23:42:58.108Z,102609.09
2022-09-05T23:45:27.128Z,102611.00
2022-09-05T23:47:55.695Z,102590.16
2022-09-05T23:50:23.744Z,102597.00
2022-09-05T23:52:51.776Z,102613.06
2022-09-05T23:55:22.474Z,102602.31
2022-09-05T23:57:50.600Z,102607.69
